Airport View

Enter AWOS ICAO identifier for current METAR.

ex. KFNL

KMDD 261135Z AUTO 17008KT 10SM CLR 20/18 A3007 RMK AO2 T02050184

26 Jun 2019 11:49

Frequency: 118.125

Phone: 432-687-4605

Other Area AWOS: KMAF - KODO - KE11 - KBPG

TAF KMAF 260530Z 2606/2706 15012KT P6SM SCT250 FM261600 16014G24KT P6SM SKC FM270200 15010KT P6SM SKC